Søk
Bilder fra klubbens virksomhet
Tooltip
Soloflygninger
Tooltip
Espen Wiik har fløyet solo
Tooltip
Rashad Habib har fløyet solo
Tooltip
David Froholt har fløyet solo
Tooltip
Leif Olsen er pilot
  • Tilfeldig bilde
     
    Opplastet 12-05-2008
    Opplastet 04-09-2011
    Opplastet 11-05-2008
     
  • Siste bilde
     
    Opplastet 27-07-2018
    Opplastet 05-06-2018
    Opplastet 31-10-2017
     
«StartForrige1234NesteSiste»
Side 1 av 4
 
 
METAR
2021/06/15 03:20 ENCN 150320Z AUTO 25007KT 9999 NCD 11/07 Q1014
TAF
2021/06/15 03:36 TAF TAF ENCN 150200Z 1503/1512 26008KT 9999 FEW045 TEMPO 1506/1512 27015G25KT
LN-KFK
Operativ VFR-natt
VFR dag
03:06 - 23:51
Brannvakt
Inaktiv
Banner
Banner
Banner
Banner
Banner